createdAt,value
2023-02-02T00:01:51.975Z,19.60
2023-02-02T00:04:23.001Z,19.10
2023-02-02T00:06:50.467Z,18.50
2023-02-02T00:09:19.178Z,17.20
2023-02-02T00:11:48.630Z,17.90
2023-02-02T00:14:16.048Z,17.80
2023-02-02T00:16:54.324Z,17.40
2023-02-02T00:19:24.866Z,17.90
2023-02-02T00:21:52.275Z,18.20
2023-02-02T00:24:19.942Z,17.80
2023-02-02T00:26:50.712Z,18.50
2023-02-02T00:29:20.860Z,18.80
2023-02-02T00:31:48.413Z,18.70
2023-02-02T00:34:16.923Z,18.90
2023-02-02T00:36:45.252Z,18.90
2023-02-02T00:39:17.620Z,18.60
2023-02-02T00:41:44.951Z,19.50
2023-02-02T00:44:30.717Z,20.20
2023-02-02T00:46:57.903Z,18.90
2023-02-02T00:49:24.972Z,18.90
2023-02-02T00:51:52.119Z,20.30
2023-02-02T00:54:19.220Z,21.00
2023-02-02T00:56:46.337Z,20.10
2023-02-02T00:59:13.460Z,19.90
2023-02-02T01:01:40.585Z,20.50
2023-02-02T01:04:08.339Z,20.80
2023-02-02T01:06:35.846Z,21.10
2023-02-02T01:09:03.740Z,20.30
2023-02-02T01:11:33.426Z,20.70
2023-02-02T01:14:00.534Z,20.80
2023-02-02T01:16:27.892Z,20.40
2023-02-02T01:18:55.212Z,20.40
2023-02-02T01:21:22.729Z,20.90
2023-02-02T01:23:50.247Z,21.00
2023-02-02T01:26:18.283Z,21.70
2023-02-02T01:28:45.971Z,22.30
2023-02-02T01:31:15.793Z,22.50
2023-02-02T01:33:44.041Z,21.90
2023-02-02T01:36:14.001Z,22.20
2023-02-02T01:38:42.514Z,22.30
2023-02-02T01:41:14.398Z,22.00
2023-02-02T01:43:44.404Z,22.40
2023-02-02T01:46:29.440Z,23.10
2023-02-02T01:49:11.362Z,24.30
2023-02-02T01:51:44.410Z,25.00
2023-02-02T01:54:23.528Z,24.50
2023-02-02T01:56:56.569Z,24.70
2023-02-02T01:59:25.256Z,24.70
2023-02-02T02:01:55.005Z,24.80
2023-02-02T02:04:24.708Z,24.90
2023-02-02T02:06:53.721Z,26.40
2023-02-02T02:09:20.950Z,25.90
2023-02-02T02:11:48.891Z,25.60
2023-02-02T02:14:35.568Z,25.20
2023-02-02T02:17:33.114Z,24.90
2023-02-02T02:20:46.426Z,24.80
2023-02-02T02:23:50.755Z,25.70
2023-02-02T02:26:55.045Z,25.60
2023-02-02T02:29:40.860Z,24.90
2023-02-02T02:32:16.714Z,25.10
2023-02-02T02:35:10.561Z,25.60
2023-02-02T02:37:40.723Z,25.90
2023-02-02T02:40:26.036Z,26.20
2023-02-02T02:42:59.223Z,27.10
2023-02-02T02:45:29.274Z,26.70
2023-02-02T02:47:56.582Z,25.90
2023-02-02T02:50:23.731Z,25.20
2023-02-02T02:53:07.260Z,25.60
2023-02-02T02:55:53.573Z,25.70
2023-02-02T02:58:44.186Z,25.30
2023-02-02T03:01:29.811Z,25.40
2023-02-02T03:04:13.058Z,25.30
2023-02-02T03:07:19.285Z,26.30
2023-02-02T03:09:49.208Z,25.80
2023-02-02T03:12:17.580Z,26.20
2023-02-02T03:14:45.015Z,27.20
2023-02-02T03:17:12.120Z,27.20
2023-02-02T03:19:39.224Z,27.10
2023-02-02T03:22:06.277Z,26.40
2023-02-02T03:24:33.353Z,25.80
2023-02-02T03:27:00.517Z,25.80
2023-02-02T03:29:28.403Z,25.50
2023-02-02T03:31:55.469Z,25.90
2023-02-02T03:34:22.590Z,25.30
2023-02-02T03:36:49.649Z,26.20
2023-02-02T03:39:16.647Z,26.90
2023-02-02T03:41:43.741Z,26.20
2023-02-02T03:44:10.817Z,25.80
2023-02-02T03:46:37.931Z,25.30
2023-02-02T03:49:05.181Z,25.10
2023-02-02T03:51:32.158Z,25.50
2023-02-02T03:53:59.208Z,25.90
2023-02-02T03:56:26.346Z,26.10
2023-02-02T03:58:53.385Z,25.70
2023-02-02T04:01:30.099Z,26.30
2023-02-02T04:03:58.375Z,26.60
2023-02-02T04:06:26.343Z,26.10
2023-02-02T04:08:53.612Z,26.50
2023-02-02T04:11:20.686Z,26.30
2023-02-02T04:13:47.982Z,26.20
2023-02-02T04:16:15.105Z,26.80
2023-02-02T04:18:42.180Z,26.80
2023-02-02T04:21:09.609Z,25.60
2023-02-02T04:23:36.884Z,25.70
2023-02-02T04:26:04.618Z,25.60
2023-02-02T04:28:32.590Z,25.30
2023-02-02T04:30:59.776Z,25.70
2023-02-02T04:33:27.822Z,25.40
2023-02-02T04:35:55.280Z,25.40
2023-02-02T04:38:22.556Z,25.80
2023-02-02T04:40:49.581Z,26.10
2023-02-02T04:43:16.790Z,26.30
2023-02-02T04:45:44.611Z,26.50
2023-02-02T04:48:11.981Z,25.80
2023-02-02T04:50:39.097Z,25.30
2023-02-02T04:53:06.482Z,24.90
2023-02-02T04:55:37.361Z,24.90
2023-02-02T04:58:05.364Z,24.70
2023-02-02T05:00:32.468Z,25.10
2023-02-02T05:03:00.651Z,25.90
2023-02-02T05:05:27.796Z,26.10
2023-02-02T05:07:54.907Z,26.00
2023-02-02T05:10:21.920Z,26.30
2023-02-02T05:12:49.100Z,26.20
2023-02-02T05:15:16.590Z,26.50
2023-02-02T05:17:43.581Z,26.50
2023-02-02T05:20:11.279Z,27.10
2023-02-02T05:22:38.650Z,27.20
2023-02-02T05:25:07.036Z,26.50
2023-02-02T05:27:34.106Z,26.70
2023-02-02T05:30:01.291Z,26.30
2023-02-02T05:32:29.894Z,26.90
2023-02-02T05:34:57.081Z,26.80
2023-02-02T05:37:24.151Z,26.80
2023-02-02T05:39:52.353Z,27.20
2023-02-02T05:42:19.492Z,27.30
2023-02-02T05:44:46.605Z,28.10
2023-02-02T05:47:13.879Z,27.60
2023-02-02T05:49:41.078Z,27.20
2023-02-02T05:52:17.935Z,27.20
2023-02-02T05:54:45.515Z,27.50
2023-02-02T05:57:12.728Z,27.10
2023-02-02T05:59:39.830Z,27.50
2023-02-02T06:02:06.991Z,26.90
2023-02-02T06:04:34.067Z,27.20
2023-02-02T06:07:01.123Z,27.80
2023-02-02T06:09:28.277Z,27.10
2023-02-02T06:11:55.335Z,27.40
2023-02-02T06:14:22.567Z,26.70
2023-02-02T06:16:49.661Z,25.70
2023-02-02T06:19:16.773Z,26.10
2023-02-02T06:21:43.959Z,26.70
2023-02-02T06:24:10.991Z,27.20
2023-02-02T06:26:38.112Z,27.60
2023-02-02T06:29:05.485Z,26.10
2023-02-02T06:31:35.706Z,25.90
2023-02-02T06:34:02.944Z,26.10
2023-02-02T06:36:30.078Z,26.60
2023-02-02T06:38:58.382Z,25.40
2023-02-02T06:41:25.880Z,25.70
2023-02-02T06:43:53.180Z,25.80
2023-02-02T06:46:20.302Z,26.80
2023-02-02T06:48:47.367Z,27.10
2023-02-02T06:51:14.953Z,25.90
2023-02-02T06:53:42.023Z,25.90
2023-02-02T06:56:13.003Z,26.60
2023-02-02T06:58:40.358Z,26.10
2023-02-02T07:01:16.282Z,26.30
2023-02-02T07:03:43.623Z,26.60
2023-02-02T07:06:22.838Z,27.20
2023-02-02T07:09:01.740Z,26.90
2023-02-02T07:11:40.763Z,26.50
2023-02-02T07:14:09.746Z,26.50
2023-02-02T07:16:36.841Z,26.00
2023-02-02T07:19:04.183Z,27.10
2023-02-02T07:21:36.229Z,27.00
2023-02-02T07:24:04.763Z,26.40
2023-02-02T07:26:31.936Z,26.40
2023-02-02T07:28:59.079Z,27.00
2023-02-02T07:31:27.679Z,26.70
2023-02-02T07:33:55.040Z,25.60
2023-02-02T07:36:24.050Z,25.70
2023-02-02T07:38:55.650Z,25.80
2023-02-02T07:41:23.040Z,25.10
2023-02-02T07:43:51.417Z,26.10
2023-02-02T07:46:19.882Z,26.60
2023-02-02T07:48:47.412Z,26.60
2023-02-02T07:51:16.972Z,25.60
2023-02-02T07:53:46.332Z,25.00
2023-02-02T07:56:15.951Z,25.20
2023-02-02T07:58:43.947Z,25.30
2023-02-02T08:01:12.878Z,25.90
2023-02-02T08:03:41.112Z,26.50
2023-02-02T08:06:18.030Z,26.70
2023-02-02T08:08:45.844Z,26.40
2023-02-02T08:11:14.647Z,27.00
2023-02-02T08:13:42.938Z,26.90
2023-02-02T08:16:11.248Z,27.40
2023-02-02T08:18:39.070Z,27.40
2023-02-02T08:21:08.736Z,28.20
2023-02-02T08:23:36.943Z,28.80
2023-02-02T08:26:08.385Z,28.20
2023-02-02T08:28:36.640Z,28.00
2023-02-02T08:31:18.669Z,28.50
2023-02-02T08:33:46.138Z,28.70
2023-02-02T08:36:15.209Z,29.00
2023-02-02T08:38:42.786Z,28.40
2023-02-02T08:41:12.557Z,28.40
2023-02-02T08:43:40.816Z,28.90
2023-02-02T08:46:10.732Z,28.80
2023-02-02T08:48:38.762Z,29.00
2023-02-02T08:51:07.621Z,29.40
2023-02-02T08:53:35.167Z,29.30
2023-02-02T08:56:04.238Z,28.70
2023-02-02T08:58:32.455Z,29.30
2023-02-02T09:01:07.309Z,29.10
2023-02-02T09:03:35.328Z,27.70
2023-02-02T09:06:07.664Z,28.40
2023-02-02T09:08:35.204Z,28.00
2023-02-02T09:11:10.371Z,27.70
2023-02-02T09:13:39.066Z,28.00
2023-02-02T09:16:08.628Z,27.20
2023-02-02T09:18:35.883Z,27.40
2023-02-02T09:21:06.934Z,27.60
2023-02-02T09:23:36.652Z,28.60
2023-02-02T09:26:16.815Z,28.30
2023-02-02T09:28:46.423Z,28.70
2023-02-02T09:31:13.899Z,28.10
2023-02-02T09:33:44.180Z,28.40
2023-02-02T09:36:16.904Z,27.50
2023-02-02T09:38:44.702Z,28.00
2023-02-02T09:41:20.922Z,28.30
2023-02-02T09:43:57.076Z,29.40
2023-02-02T09:46:49.838Z,29.40
2023-02-02T09:49:28.584Z,29.10
2023-02-02T09:52:08.065Z,29.50
2023-02-02T09:54:50.408Z,29.50
2023-02-02T09:57:24.862Z,29.10
2023-02-02T09:59:54.181Z,29.00
2023-02-02T10:02:22.821Z,28.80
2023-02-02T10:04:57.633Z,28.90
2023-02-02T10:07:34.827Z,29.20
2023-02-02T10:10:11.321Z,28.80
2023-02-02T10:12:48.018Z,29.40
2023-02-02T10:15:33.931Z,28.50
2023-02-02T10:18:06.083Z,28.50
2023-02-02T10:20:39.074Z,28.10
2023-02-02T10:23:34.244Z,27.80
2023-02-02T10:26:34.358Z,28.10
2023-02-02T10:29:48.969Z,28.30
2023-02-02T10:32:35.666Z,28.10
2023-02-02T10:35:26.076Z,27.90
2023-02-02T10:37:57.087Z,27.80
2023-02-02T10:40:52.163Z,27.00
2023-02-02T10:43:57.510Z,27.10
2023-02-02T10:46:37.334Z,27.50
2023-02-02T10:49:15.813Z,27.20
2023-02-02T10:51:55.303Z,27.30
2023-02-02T10:54:54.852Z,28.00
2023-02-02T10:57:44.290Z,29.70
2023-02-02T11:00:24.126Z,30.10
2023-02-02T11:02:53.303Z,29.50
2023-02-02T11:05:48.476Z,28.90
2023-02-02T11:08:32.917Z,27.90
2023-02-02T11:11:12.643Z,27.80
2023-02-02T11:14:05.065Z,27.90
2023-02-02T11:16:43.987Z,28.10
2023-02-02T11:19:31.078Z,27.80
2023-02-02T11:22:01.092Z,27.80
2023-02-02T11:24:29.714Z,29.00
2023-02-02T11:27:00.949Z,29.00
2023-02-02T11:29:40.176Z,29.00
2023-02-02T11:32:25.701Z,29.10
2023-02-02T11:35:08.239Z,27.40
2023-02-02T11:37:37.751Z,28.50
2023-02-02T11:40:24.589Z,27.80
2023-02-02T11:42:53.200Z,26.90
2023-02-02T11:45:37.497Z,26.70
2023-02-02T11:48:20.929Z,27.00
2023-02-02T11:50:51.880Z,27.90
2023-02-02T11:53:29.215Z,28.70
2023-02-02T11:56:00.405Z,28.70
2023-02-02T11:58:29.033Z,28.50
2023-02-02T12:01:01.987Z,28.40
2023-02-02T12:03:39.532Z,28.40
2023-02-02T12:06:27.314Z,27.80
2023-02-02T12:09:01.478Z,28.30
2023-02-02T12:11:34.356Z,28.90
2023-02-02T12:14:21.394Z,28.30
2023-02-02T12:17:33.201Z,28.20
2023-02-02T12:20:12.140Z,28.60
2023-02-02T12:22:58.854Z,28.10
2023-02-02T12:25:35.089Z,27.70
2023-02-02T12:28:20.773Z,28.00
2023-02-02T12:31:06.050Z,28.30
2023-02-02T12:33:53.686Z,28.30
2023-02-02T12:36:55.539Z,27.20
2023-02-02T12:39:38.079Z,27.40
2023-02-02T12:42:55.351Z,27.80
2023-02-02T12:46:02.028Z,28.10
2023-02-02T12:49:10.763Z,27.60
2023-02-02T12:52:04.037Z,28.20
2023-02-02T12:55:05.746Z,29.00
2023-02-02T12:57:43.696Z,29.30
2023-02-02T13:00:38.459Z,28.80
2023-02-02T13:03:16.751Z,29.00
2023-02-02T13:06:14.523Z,29.20
2023-02-02T13:09:03.446Z,28.60
2023-02-02T13:11:50.139Z,27.20
2023-02-02T13:14:32.085Z,27.40
2023-02-02T13:17:10.167Z,28.60
2023-02-02T13:19:53.693Z,29.40
2023-02-02T13:22:28.783Z,29.60
2023-02-02T13:25:01.472Z,29.10
2023-02-02T13:27:31.735Z,29.00
2023-02-02T13:30:16.309Z,29.20
2023-02-02T13:32:46.588Z,28.60
2023-02-02T13:35:29.824Z,27.70
2023-02-02T13:38:21.489Z,28.10
2023-02-02T13:40:50.145Z,28.60
2023-02-02T13:43:40.358Z,29.10
2023-02-02T13:46:25.522Z,29.20
2023-02-02T13:49:19.363Z,29.00
2023-02-02T13:51:54.032Z,28.90
2023-02-02T13:54:49.369Z,29.30
2023-02-02T13:57:53.697Z,29.70
2023-02-02T14:00:28.907Z,29.30
2023-02-02T14:02:59.505Z,30.10
2023-02-02T14:05:37.103Z,30.50
2023-02-02T14:08:08.689Z,31.10
2023-02-02T14:10:45.405Z,29.70
2023-02-02T14:13:32.830Z,30.20
2023-02-02T14:16:03.527Z,30.20
2023-02-02T14:18:49.350Z,30.40
2023-02-02T14:21:34.592Z,30.60
2023-02-02T14:24:28.043Z,30.90
2023-02-02T14:26:57.926Z,30.80
2023-02-02T14:29:35.086Z,30.70
2023-02-02T14:32:11.655Z,30.10
2023-02-02T14:34:44.131Z,30.20
2023-02-02T14:37:29.892Z,30.00
2023-02-02T14:40:16.825Z,30.80
2023-02-02T14:43:11.401Z,30.10
2023-02-02T14:45:42.795Z,29.80
2023-02-02T14:48:15.886Z,29.80
2023-02-02T14:50:57.532Z,30.30
2023-02-02T14:53:31.950Z,30.80
2023-02-02T14:56:12.093Z,30.80
2023-02-02T14:58:46.579Z,31.60
2023-02-02T15:01:25.544Z,32.00
2023-02-02T15:03:57.391Z,32.40
2023-02-02T15:06:40.787Z,32.80
2023-02-02T15:09:23.569Z,32.80
2023-02-02T15:12:02.684Z,33.10
2023-02-02T15:14:36.062Z,31.80
2023-02-02T15:17:27.630Z,32.30
2023-02-02T15:20:01.404Z,32.30
2023-02-02T15:23:06.348Z,31.70
2023-02-02T15:25:47.068Z,30.60
2023-02-02T15:28:19.216Z,30.70
2023-02-02T15:30:51.436Z,30.90
2023-02-02T15:33:29.330Z,30.80
2023-02-02T15:36:00.079Z,31.20
2023-02-02T15:38:35.878Z,31.40
2023-02-02T15:41:20.052Z,30.60
2023-02-02T15:43:47.969Z,31.00
2023-02-02T15:46:24.534Z,30.90
2023-02-02T15:49:33.808Z,30.70
2023-02-02T15:52:11.559Z,31.10
2023-02-02T15:54:38.811Z,31.30
2023-02-02T15:57:42.410Z,31.20
2023-02-02T16:00:32.159Z,31.30
2023-02-02T16:03:23.743Z,31.30
2023-02-02T16:05:57.236Z,31.10
2023-02-02T16:08:34.315Z,31.20
2023-02-02T16:11:09.106Z,31.30
2023-02-02T16:13:37.985Z,31.20
2023-02-02T16:16:20.392Z,31.10
2023-02-02T16:18:47.715Z,31.00
2023-02-02T16:21:24.185Z,31.10
2023-02-02T16:23:52.822Z,31.30
2023-02-02T16:26:22.786Z,31.30
2023-02-02T16:28:50.455Z,30.90
2023-02-02T16:31:18.015Z,30.60
2023-02-02T16:33:46.069Z,29.90
2023-02-02T16:36:29.832Z,30.10
2023-02-02T16:38:59.974Z,30.20
2023-02-02T16:41:35.973Z,30.20
2023-02-02T16:44:37.001Z,30.30
2023-02-02T16:47:06.802Z,29.70
2023-02-02T16:49:35.755Z,29.20
2023-02-02T16:52:16.407Z,29.50
2023-02-02T16:54:54.947Z,29.80
2023-02-02T16:57:33.098Z,29.60
2023-02-02T17:00:05.335Z,29.70
2023-02-02T17:02:41.131Z,30.00
2023-02-02T17:05:19.267Z,30.30
2023-02-02T17:07:51.105Z,30.10
2023-02-02T17:10:18.198Z,30.20
2023-02-02T17:12:47.001Z,30.20
2023-02-02T17:15:20.007Z,30.40
2023-02-02T17:17:48.745Z,30.50
2023-02-02T17:20:18.333Z,30.60
2023-02-02T17:22:58.965Z,30.60
2023-02-02T17:25:33.315Z,30.90
2023-02-02T17:28:01.808Z,31.00
2023-02-02T17:30:29.776Z,30.80
2023-02-02T17:32:57.306Z,30.60
2023-02-02T17:35:27.151Z,30.50
2023-02-02T17:37:54.993Z,30.60
2023-02-02T17:40:23.968Z,30.30
2023-02-02T17:42:53.537Z,30.50
2023-02-02T17:45:33.612Z,30.70
2023-02-02T17:48:01.419Z,30.20
2023-02-02T17:50:29.680Z,30.10
2023-02-02T17:52:57.160Z,29.90
2023-02-02T17:55:33.217Z,29.90
2023-02-02T17:58:00.425Z,30.20
2023-02-02T18:00:31.149Z,30.20
2023-02-02T18:03:12.232Z,30.60
2023-02-02T18:05:41.375Z,30.60
2023-02-02T18:08:13.726Z,30.60
2023-02-02T18:10:42.326Z,30.70
2023-02-02T18:13:16.146Z,30.40
2023-02-02T18:15:43.969Z,30.50
2023-02-02T18:18:12.596Z,30.70
2023-02-02T18:20:43.740Z,30.20
2023-02-02T18:23:12.701Z,29.60
2023-02-02T18:25:39.913Z,28.70
2023-02-02T18:28:08.386Z,28.80
2023-02-02T18:30:37.815Z,28.50
2023-02-02T18:33:04.934Z,29.00
2023-02-02T18:35:32.213Z,29.00
2023-02-02T18:37:59.267Z,28.90
2023-02-02T18:40:26.422Z,28.90
2023-02-02T18:42:53.608Z,28.70
2023-02-02T18:45:20.677Z,28.70
2023-02-02T18:47:47.767Z,29.20
2023-02-02T18:50:17.375Z,29.60
2023-02-02T18:52:44.588Z,29.90
2023-02-02T18:55:11.757Z,30.10
2023-02-02T18:57:38.988Z,29.20
2023-02-02T19:00:07.061Z,28.40
2023-02-02T19:02:34.245Z,27.70
2023-02-02T19:05:20.934Z,27.70
2023-02-02T19:07:57.313Z,27.70
2023-02-02T19:10:26.288Z,27.70
2023-02-02T19:13:09.347Z,27.80
2023-02-02T19:15:41.801Z,27.90
2023-02-02T19:18:18.390Z,28.70
2023-02-02T19:20:46.173Z,29.10
2023-02-02T19:23:14.471Z,29.10
2023-02-02T19:25:44.284Z,28.90
2023-02-02T19:28:28.996Z,28.70
2023-02-02T19:31:02.699Z,29.00
2023-02-02T19:33:49.405Z,29.30
2023-02-02T19:36:23.322Z,28.90
2023-02-02T19:39:01.491Z,28.20
2023-02-02T19:41:31.098Z,27.70
2023-02-02T19:44:11.565Z,27.20
2023-02-02T19:46:48.355Z,26.80
2023-02-02T19:49:29.700Z,26.90
2023-02-02T19:52:01.693Z,26.90
2023-02-02T19:54:38.931Z,27.00
2023-02-02T19:57:36.901Z,27.30
2023-02-02T20:00:37.072Z,27.00
2023-02-02T20:03:16.917Z,27.40
2023-02-02T20:05:47.474Z,27.50
2023-02-02T20:08:33.663Z,26.90
2023-02-02T20:11:17.808Z,26.00
2023-02-02T20:13:49.290Z,25.50
2023-02-02T20:16:19.710Z,25.60
2023-02-02T20:18:54.105Z,25.50
2023-02-02T20:21:33.028Z,25.50
2023-02-02T20:24:00.519Z,24.90
2023-02-02T20:26:36.078Z,24.80
2023-02-02T20:29:20.175Z,25.00
2023-02-02T20:31:48.125Z,24.90
2023-02-02T20:34:27.851Z,26.00
2023-02-02T20:36:59.196Z,26.40
2023-02-02T20:39:39.931Z,26.80
2023-02-02T20:42:08.402Z,27.00
2023-02-02T20:44:36.104Z,26.70
2023-02-02T20:47:04.073Z,25.40
2023-02-02T20:49:32.048Z,24.70
2023-02-02T20:52:02.676Z,24.80
2023-02-02T20:54:30.907Z,26.00
2023-02-02T20:56:58.417Z,26.70
2023-02-02T20:59:25.742Z,26.80
2023-02-02T21:01:53.191Z,26.30
2023-02-02T21:04:21.530Z,26.80
2023-02-02T21:06:49.500Z,27.50
2023-02-02T21:09:17.851Z,27.60
2023-02-02T21:11:45.213Z,27.30
2023-02-02T21:14:12.564Z,27.20
2023-02-02T21:16:39.664Z,26.90
2023-02-02T21:19:06.801Z,26.90
2023-02-02T21:21:33.993Z,26.50
2023-02-02T21:24:01.236Z,26.40
2023-02-02T21:26:30.904Z,26.70
2023-02-02T21:28:58.776Z,26.50
2023-02-02T21:31:26.716Z,26.30
2023-02-02T21:33:54.321Z,26.30
2023-02-02T21:36:27.287Z,26.70
2023-02-02T21:39:00.317Z,26.90
2023-02-02T21:41:31.989Z,27.00
2023-02-02T21:43:59.561Z,26.80
2023-02-02T21:46:35.701Z,26.80
2023-02-02T21:49:03.299Z,27.00
2023-02-02T21:51:36.224Z,27.00
2023-02-02T21:54:23.556Z,27.00
2023-02-02T21:56:51.981Z,25.90
2023-02-02T21:59:27.880Z,26.00
2023-02-02T22:01:55.237Z,26.70
2023-02-02T22:04:28.639Z,27.40
2023-02-02T22:07:14.097Z,26.80
2023-02-02T22:09:43.978Z,27.00
2023-02-02T22:12:17.061Z,27.00
2023-02-02T22:14:45.687Z,26.10
2023-02-02T22:17:30.921Z,25.80
2023-02-02T22:20:18.963Z,26.60
2023-02-02T22:22:48.960Z,26.30
2023-02-02T22:25:25.660Z,25.90
2023-02-02T22:27:58.406Z,26.30
2023-02-02T22:30:40.142Z,26.40
2023-02-02T22:33:12.358Z,27.10
2023-02-02T22:35:39.992Z,27.20
2023-02-02T22:38:07.339Z,27.20
2023-02-02T22:40:34.873Z,26.90
2023-02-02T22:43:04.633Z,26.50
2023-02-02T22:45:31.789Z,27.00
2023-02-02T22:47:59.043Z,26.70
2023-02-02T22:50:28.475Z,27.00
2023-02-02T22:52:56.246Z,26.80
2023-02-02T22:55:23.890Z,26.30
2023-02-02T22:57:51.115Z,25.80
2023-02-02T23:00:25.687Z,26.00
2023-02-02T23:02:54.323Z,26.30
2023-02-02T23:05:22.998Z,26.50
2023-02-02T23:07:51.284Z,27.40
2023-02-02T23:10:24.258Z,27.50
2023-02-02T23:12:55.098Z,27.60
2023-02-02T23:15:22.621Z,27.80
2023-02-02T23:17:50.214Z,28.00
2023-02-02T23:20:18.187Z,28.20
2023-02-02T23:22:45.346Z,28.20
2023-02-02T23:25:14.179Z,27.70
2023-02-02T23:27:41.840Z,27.40
2023-02-02T23:30:10.768Z,27.50
2023-02-02T23:32:38.028Z,28.40
2023-02-02T23:35:10.363Z,29.10
2023-02-02T23:37:38.202Z,29.30
2023-02-02T23:40:08.306Z,29.30
2023-02-02T23:42:35.483Z,29.60
2023-02-02T23:45:02.633Z,29.80
2023-02-02T23:47:29.874Z,30.00
2023-02-02T23:49:57.164Z,30.10
2023-02-02T23:52:24.399Z,29.80
2023-02-02T23:54:52.957Z,29.70
2023-02-02T23:57:20.877Z,29.90
2023-02-02T23:59:47.917Z,30.10
